sensor_id;sensor_type;location;lat;lon;timestamp;temperature;humidity
76759;DHT22;65701;45.588;5.186;2023-08-12T00:00:10;25.24;56.43
76759;DHT22;65701;45.588;5.186;2023-08-12T00:02:42;25.26;56.47
76759;DHT22;65701;45.588;5.186;2023-08-12T00:05:08;25.24;56.45
76759;DHT22;65701;45.588;5.186;2023-08-12T00:07:36;25.19;56.48
76759;DHT22;65701;45.588;5.186;2023-08-12T00:10:03;25.18;56.41
76759;DHT22;65701;45.588;5.186;2023-08-12T00:12:31;25.17;56.39
76759;DHT22;65701;45.588;5.186;2023-08-12T00:14:57;25.17;56.43
76759;DHT22;65701;45.588;5.186;2023-08-12T00:17:22;25.15;56.42
76759;DHT22;65701;45.588;5.186;2023-08-12T00:19:48;25.11;56.38
76759;DHT22;65701;45.588;5.186;2023-08-12T00:22:13;25.12;56.42
76759;DHT22;65701;45.588;5.186;2023-08-12T00:24:39;25.08;56.42
76759;DHT22;65701;45.588;5.186;2023-08-12T00:27:06;25.04;56.44
76759;DHT22;65701;45.588;5.186;2023-08-12T00:29:32;25.03;56.55
76759;DHT22;65701;45.588;5.186;2023-08-12T00:31:58;25.03;56.55
76759;DHT22;65701;45.588;5.186;2023-08-12T00:34:23;25.01;56.53
76759;DHT22;65701;45.588;5.186;2023-08-12T00:36:49;25.01;56.46
76759;DHT22;65701;45.588;5.186;2023-08-12T00:39:14;24.99;56.50
76759;DHT22;65701;45.588;5.186;2023-08-12T00:41:40;24.99;56.50
76759;DHT22;65701;45.588;5.186;2023-08-12T00:44:06;24.95;56.51
76759;DHT22;65701;45.588;5.186;2023-08-12T00:46:33;24.92;56.57
76759;DHT22;65701;45.588;5.186;2023-08-12T00:48:59;24.92;56.59
76759;DHT22;65701;45.588;5.186;2023-08-12T00:51:25;24.94;56.52
76759;DHT22;65701;45.588;5.186;2023-08-12T00:53:51;24.92;56.47
76759;DHT22;65701;45.588;5.186;2023-08-12T00:56:17;24.92;56.48
76759;DHT22;65701;45.588;5.186;2023-08-12T00:58:43;24.92;56.37
76759;DHT22;65701;45.588;5.186;2023-08-12T01:01:09;24.94;56.25
76759;DHT22;65701;45.588;5.186;2023-08-12T01:03:36;24.95;56.22
76759;DHT22;65701;45.588;5.186;2023-08-12T01:06:02;24.94;56.16
76759;DHT22;65701;45.588;5.186;2023-08-12T01:08:31;24.92;56.17
76759;DHT22;65701;45.588;5.186;2023-08-12T01:11:20;24.94;56.14
76759;DHT22;65701;45.588;5.186;2023-08-12T01:16:30;24.95;56.03
76759;DHT22;65701;45.588;5.186;2023-08-12T01:18:57;24.95;55.93
76759;DHT22;65701;45.588;5.186;2023-08-12T01:21:24;24.91;55.82
76759;DHT22;65701;45.588;5.186;2023-08-12T01:23:52;24.95;55.77
76759;DHT22;65701;45.588;5.186;2023-08-12T01:26:17;24.94;55.73
76759;DHT22;65701;45.588;5.186;2023-08-12T01:28:43;24.95;55.69
76759;DHT22;65701;45.588;5.186;2023-08-12T01:31:16;24.95;55.63
76759;DHT22;65701;45.588;5.186;2023-08-12T01:33:52;24.97;55.63
76759;DHT22;65701;45.588;5.186;2023-08-12T01:36:24;24.92;55.60
76759;DHT22;65701;45.588;5.186;2023-08-12T01:38:52;24.98;55.50
76759;DHT22;65701;45.588;5.186;2023-08-12T01:41:23;24.94;55.39
76759;DHT22;65701;45.588;5.186;2023-08-12T01:43:49;24.98;55.33
76759;DHT22;65701;45.588;5.186;2023-08-12T01:46:14;24.97;55.29
76759;DHT22;65701;45.588;5.186;2023-08-12T01:48:40;24.98;55.17
76759;DHT22;65701;45.588;5.186;2023-08-12T01:51:05;24.99;55.15
76759;DHT22;65701;45.588;5.186;2023-08-12T01:53:31;25.01;55.12
76759;DHT22;65701;45.588;5.186;2023-08-12T01:55:56;24.99;55.02
76759;DHT22;65701;45.588;5.186;2023-08-12T01:58:22;25.03;54.88
76759;DHT22;65701;45.588;5.186;2023-08-12T02:00:47;24.97;54.72
76759;DHT22;65701;45.588;5.186;2023-08-12T02:03:13;24.95;54.66
76759;DHT22;65701;45.588;5.186;2023-08-12T02:05:38;24.99;54.57
76759;DHT22;65701;45.588;5.186;2023-08-12T02:08:04;25.01;54.50
76759;DHT22;65701;45.588;5.186;2023-08-12T02:10:30;24.97;54.39
76759;DHT22;65701;45.588;5.186;2023-08-12T02:12:55;24.94;54.37
76759;DHT22;65701;45.588;5.186;2023-08-12T02:15:21;24.94;54.30
76759;DHT22;65701;45.588;5.186;2023-08-12T02:17:47;24.95;54.29
76759;DHT22;65701;45.588;5.186;2023-08-12T02:20:12;24.95;54.38
76759;DHT22;65701;45.588;5.186;2023-08-12T02:22:38;24.92;54.36
76759;DHT22;65701;45.588;5.186;2023-08-12T02:25:04;24.98;54.42
76759;DHT22;65701;45.588;5.186;2023-08-12T02:27:29;24.97;54.43
76759;DHT22;65701;45.588;5.186;2023-08-12T02:29:55;24.95;54.56
76759;DHT22;65701;45.588;5.186;2023-08-12T02:32:20;24.95;54.49
76759;DHT22;65701;45.588;5.186;2023-08-12T02:34:46;24.98;54.44
76759;DHT22;65701;45.588;5.186;2023-08-12T02:37:11;24.95;54.46
76759;DHT22;65701;45.588;5.186;2023-08-12T02:39:38;24.97;54.45
76759;DHT22;65701;45.588;5.186;2023-08-12T02:42:04;25.01;54.44
76759;DHT22;65701;45.588;5.186;2023-08-12T02:44:30;25.03;54.43
76759;DHT22;65701;45.588;5.186;2023-08-12T02:46:55;25.04;54.46
76759;DHT22;65701;45.588;5.186;2023-08-12T02:49:21;25.03;54.53
76759;DHT22;65701;45.588;5.186;2023-08-12T02:51:46;24.98;54.57
76759;DHT22;65701;45.588;5.186;2023-08-12T02:54:12;24.95;54.58
76759;DHT22;65701;45.588;5.186;2023-08-12T02:56:37;24.94;54.64
76759;DHT22;65701;45.588;5.186;2023-08-12T02:59:03;24.92;54.59
76759;DHT22;65701;45.588;5.186;2023-08-12T03:01:28;24.95;54.62
76759;DHT22;65701;45.588;5.186;2023-08-12T03:03:55;24.94;54.62
76759;DHT22;65701;45.588;5.186;2023-08-12T03:06:20;24.87;54.56
76759;DHT22;65701;45.588;5.186;2023-08-12T03:08:46;24.88;54.58
76759;DHT22;65701;45.588;5.186;2023-08-12T03:11:11;24.86;54.53
76759;DHT22;65701;45.588;5.186;2023-08-12T03:13:37;24.88;54.53
76759;DHT22;65701;45.588;5.186;2023-08-12T03:16:02;24.88;54.53
76759;DHT22;65701;45.588;5.186;2023-08-12T03:18:28;24.90;54.55
76759;DHT22;65701;45.588;5.186;2023-08-12T03:20:53;24.88;54.55
76759;DHT22;65701;45.588;5.186;2023-08-12T03:23:19;24.91;54.47
76759;DHT22;65701;45.588;5.186;2023-08-12T03:25:47;24.87;54.49
76759;DHT22;65701;45.588;5.186;2023-08-12T03:28:13;24.90;54.48
76759;DHT22;65701;45.588;5.186;2023-08-12T03:30:39;24.81;54.38
76759;DHT22;65701;45.588;5.186;2023-08-12T03:33:04;24.83;54.32
76759;DHT22;65701;45.588;5.186;2023-08-12T03:35:30;24.86;54.31
76759;DHT22;65701;45.588;5.186;2023-08-12T03:37:55;24.84;54.41
76759;DHT22;65701;45.588;5.186;2023-08-12T03:40:21;24.84;54.38
76759;DHT22;65701;45.588;5.186;2023-08-12T03:42:46;24.87;54.44
76759;DHT22;65701;45.588;5.186;2023-08-12T03:45:12;24.86;54.44
76759;DHT22;65701;45.588;5.186;2023-08-12T03:47:37;24.84;54.43
76759;DHT22;65701;45.588;5.186;2023-08-12T03:50:03;24.84;54.44
76759;DHT22;65701;45.588;5.186;2023-08-12T03:52:28;24.84;54.47
76759;DHT22;65701;45.588;5.186;2023-08-12T03:54:54;24.83;54.47
76759;DHT22;65701;45.588;5.186;2023-08-12T03:57:19;24.83;54.57
76759;DHT22;65701;45.588;5.186;2023-08-12T03:59:45;24.83;54.57
76759;DHT22;65701;45.588;5.186;2023-08-12T04:02:10;24.83;54.58
76759;DHT22;65701;45.588;5.186;2023-08-12T04:04:36;24.84;54.65
76759;DHT22;65701;45.588;5.186;2023-08-12T04:07:01;24.84;54.70
76759;DHT22;65701;45.588;5.186;2023-08-12T04:09:27;24.86;54.67
76759;DHT22;65701;45.588;5.186;2023-08-12T04:11:52;24.86;54.71
76759;DHT22;65701;45.588;5.186;2023-08-12T04:14:18;24.86;54.68
76759;DHT22;65701;45.588;5.186;2023-08-12T04:16:43;24.88;54.73
76759;DHT22;65701;45.588;5.186;2023-08-12T04:19:09;24.87;54.80
76759;DHT22;65701;45.588;5.186;2023-08-12T04:21:34;24.87;54.78
76759;DHT22;65701;45.588;5.186;2023-08-12T04:24:00;24.87;54.81
76759;DHT22;65701;45.588;5.186;2023-08-12T04:26:25;24.90;54.81
76759;DHT22;65701;45.588;5.186;2023-08-12T04:28:50;24.87;54.87
76759;DHT22;65701;45.588;5.186;2023-08-12T04:31:16;24.88;54.87
76759;DHT22;65701;45.588;5.186;2023-08-12T04:33:42;24.87;54.87
76759;DHT22;65701;45.588;5.186;2023-08-12T04:36:07;24.87;54.92
76759;DHT22;65701;45.588;5.186;2023-08-12T04:38:33;24.87;54.94
76759;DHT22;65701;45.588;5.186;2023-08-12T04:40:58;24.86;54.93
76759;DHT22;65701;45.588;5.186;2023-08-12T04:43:24;24.87;54.98
76759;DHT22;65701;45.588;5.186;2023-08-12T04:45:49;24.81;55.04
76759;DHT22;65701;45.588;5.186;2023-08-12T04:48:15;24.86;54.98
76759;DHT22;65701;45.588;5.186;2023-08-12T04:50:42;24.87;55.00
76759;DHT22;65701;45.588;5.186;2023-08-12T04:53:07;24.87;54.92
76759;DHT22;65701;45.588;5.186;2023-08-12T04:55:34;24.90;54.88
76759;DHT22;65701;45.588;5.186;2023-08-12T04:58:00;24.90;54.86
76759;DHT22;65701;45.588;5.186;2023-08-12T05:00:26;24.92;54.91
76759;DHT22;65701;45.588;5.186;2023-08-12T05:02:51;24.92;54.88
76759;DHT22;65701;45.588;5.186;2023-08-12T05:05:17;24.97;54.86
76759;DHT22;65701;45.588;5.186;2023-08-12T05:07:42;24.99;54.81
76759;DHT22;65701;45.588;5.186;2023-08-12T05:10:09;24.95;54.80
76759;DHT22;65701;45.588;5.186;2023-08-12T05:12:35;24.99;54.88
76759;DHT22;65701;45.588;5.186;2023-08-12T05:15:00;24.98;54.85
76759;DHT22;65701;45.588;5.186;2023-08-12T05:17:26;24.98;54.84
76759;DHT22;65701;45.588;5.186;2023-08-12T05:19:51;24.98;54.87
76759;DHT22;65701;45.588;5.186;2023-08-12T05:22:17;24.95;54.91
76759;DHT22;65701;45.588;5.186;2023-08-12T05:24:42;24.97;54.92
76759;DHT22;65701;45.588;5.186;2023-08-12T05:27:08;24.94;54.97
76759;DHT22;65701;45.588;5.186;2023-08-12T05:29:33;24.91;55.02
76759;DHT22;65701;45.588;5.186;2023-08-12T05:31:59;24.95;55.09
76759;DHT22;65701;45.588;5.186;2023-08-12T05:34:24;24.92;55.08
76759;DHT22;65701;45.588;5.186;2023-08-12T05:36:50;24.88;55.15
76759;DHT22;65701;45.588;5.186;2023-08-12T05:39:15;24.92;55.27
76759;DHT22;65701;45.588;5.186;2023-08-12T05:41:41;24.84;55.28
76759;DHT22;65701;45.588;5.186;2023-08-12T05:44:07;24.92;55.34
76759;DHT22;65701;45.588;5.186;2023-08-12T05:46:32;24.98;55.38
76759;DHT22;65701;45.588;5.186;2023-08-12T05:48:58;25.01;55.49
76759;DHT22;65701;45.588;5.186;2023-08-12T05:51:23;25.08;55.57
76759;DHT22;65701;45.588;5.186;2023-08-12T05:53:49;25.11;55.69
76759;DHT22;65701;45.588;5.186;2023-08-12T05:56:15;25.14;55.66
76759;DHT22;65701;45.588;5.186;2023-08-12T05:58:40;25.15;55.55
76759;DHT22;65701;45.588;5.186;2023-08-12T06:01:06;25.17;55.61
76759;DHT22;65701;45.588;5.186;2023-08-12T06:03:31;25.15;55.61
76759;DHT22;65701;45.588;5.186;2023-08-12T06:05:57;25.21;55.59
76759;DHT22;65701;45.588;5.186;2023-08-12T06:08:22;25.25;55.77
76759;DHT22;65701;45.588;5.186;2023-08-12T06:10:48;25.28;55.83
76759;DHT22;65701;45.588;5.186;2023-08-12T06:13:13;25.34;55.83
76759;DHT22;65701;45.588;5.186;2023-08-12T06:15:39;25.41;55.90
76759;DHT22;65701;45.588;5.186;2023-08-12T06:18:04;25.46;55.82
76759;DHT22;65701;45.588;5.186;2023-08-12T06:20:30;25.45;55.72
76759;DHT22;65701;45.588;5.186;2023-08-12T06:22:56;25.53;55.68
76759;DHT22;65701;45.588;5.186;2023-08-12T06:25:21;25.54;55.69
76759;DHT22;65701;45.588;5.186;2023-08-12T06:27:47;25.59;55.54
76759;DHT22;65701;45.588;5.186;2023-08-12T06:30:13;25.65;55.55
76759;DHT22;65701;45.588;5.186;2023-08-12T06:32:40;25.65;55.38
76759;DHT22;65701;45.588;5.186;2023-08-12T06:35:05;25.70;55.26
76759;DHT22;65701;45.588;5.186;2023-08-12T06:37:31;25.69;55.16
76759;DHT22;65701;45.588;5.186;2023-08-12T06:39:57;25.70;55.08
76759;DHT22;65701;45.588;5.186;2023-08-12T06:42:22;25.69;55.11
76759;DHT22;65701;45.588;5.186;2023-08-12T06:44:56;25.69;55.06
76759;DHT22;65701;45.588;5.186;2023-08-12T06:47:22;25.66;54.98
76759;DHT22;65701;45.588;5.186;2023-08-12T06:49:48;25.67;54.96
76759;DHT22;65701;45.588;5.186;2023-08-12T06:52:13;25.70;54.96
76759;DHT22;65701;45.588;5.186;2023-08-12T06:54:39;25.70;55.02
76759;DHT22;65701;45.588;5.186;2023-08-12T06:57:04;25.74;55.01
76759;DHT22;65701;45.588;5.186;2023-08-12T06:59:30;25.86;55.08
76759;DHT22;65701;45.588;5.186;2023-08-12T07:01:55;26.07;55.30
76759;DHT22;65701;45.588;5.186;2023-08-12T07:04:21;26.34;55.20
76759;DHT22;65701;45.588;5.186;2023-08-12T07:06:47;26.59;55.09
76759;DHT22;65701;45.588;5.186;2023-08-12T07:09:13;26.80;54.75
76759;DHT22;65701;45.588;5.186;2023-08-12T07:11:38;27.06;54.64
76759;DHT22;65701;45.588;5.186;2023-08-12T07:14:04;27.35;54.28
76759;DHT22;65701;45.588;5.186;2023-08-12T07:16:30;27.59;54.20
76759;DHT22;65701;45.588;5.186;2023-08-12T07:18:55;27.79;54.05
76759;DHT22;65701;45.588;5.186;2023-08-12T07:21:21;28.03;53.65
76759;DHT22;65701;45.588;5.186;2023-08-12T07:23:46;28.22;53.36
76759;DHT22;65701;45.588;5.186;2023-08-12T07:26:11;28.41;53.21
76759;DHT22;65701;45.588;5.186;2023-08-12T07:28:37;28.58;52.85
76759;DHT22;65701;45.588;5.186;2023-08-12T07:31:02;28.80;52.55
76759;DHT22;65701;45.588;5.186;2023-08-12T07:33:28;29.02;52.53
76759;DHT22;65701;45.588;5.186;2023-08-12T07:35:54;29.23;52.34
76759;DHT22;65701;45.588;5.186;2023-08-12T07:38:19;29.39;51.72
76759;DHT22;65701;45.588;5.186;2023-08-12T07:40:44;29.48;51.49
76759;DHT22;65701;45.588;5.186;2023-08-12T07:43:10;29.44;51.42
76759;DHT22;65701;45.588;5.186;2023-08-12T07:45:35;29.38;50.40
76759;DHT22;65701;45.588;5.186;2023-08-12T07:48:01;29.21;49.92
76759;DHT22;65701;45.588;5.186;2023-08-12T07:50:26;29.20;50.23
76759;DHT22;65701;45.588;5.186;2023-08-12T07:52:52;29.23;50.94
76759;DHT22;65701;45.588;5.186;2023-08-12T07:55:18;29.28;50.59
76759;DHT22;65701;45.588;5.186;2023-08-12T07:57:44;29.50;50.75
76759;DHT22;65701;45.588;5.186;2023-08-12T08:00:10;29.68;50.84
76759;DHT22;65701;45.588;5.186;2023-08-12T08:02:37;29.82;50.16
76759;DHT22;65701;45.588;5.186;2023-08-12T08:05:03;29.93;50.25
76759;DHT22;65701;45.588;5.186;2023-08-12T08:07:29;30.03;50.09
76759;DHT22;65701;45.588;5.186;2023-08-12T08:09:54;30.13;49.89
76759;DHT22;65701;45.588;5.186;2023-08-12T08:12:20;30.31;49.90
76759;DHT22;65701;45.588;5.186;2023-08-12T08:14:46;30.48;49.32
76759;DHT22;65701;45.588;5.186;2023-08-12T08:17:11;30.61;48.90
76759;DHT22;65701;45.588;5.186;2023-08-12T08:19:36;30.82;48.93
76759;DHT22;65701;45.588;5.186;2023-08-12T08:22:02;31.02;48.64
76759;DHT22;65701;45.588;5.186;2023-08-12T08:24:28;31.17;47.71
76759;DHT22;65701;45.588;5.186;2023-08-12T08:26:54;31.33;47.43
76759;DHT22;65701;45.588;5.186;2023-08-12T08:29:19;31.44;46.85
76759;DHT22;65701;45.588;5.186;2023-08-12T08:31:45;31.55;46.84
76759;DHT22;65701;45.588;5.186;2023-08-12T08:34:10;31.69;46.74
76759;DHT22;65701;45.588;5.186;2023-08-12T08:36:36;31.78;46.06
76759;DHT22;65701;45.588;5.186;2023-08-12T08:39:01;31.85;45.68
76759;DHT22;65701;45.588;5.186;2023-08-12T08:41:30;31.93;45.70
76759;DHT22;65701;45.588;5.186;2023-08-12T08:44:01;32.08;45.61
76759;DHT22;65701;45.588;5.186;2023-08-12T08:46:28;32.17;45.48
76759;DHT22;65701;45.588;5.186;2023-08-12T08:48:55;32.30;45.50
76759;DHT22;65701;45.588;5.186;2023-08-12T08:51:22;32.41;45.39
76759;DHT22;65701;45.588;5.186;2023-08-12T08:53:48;32.45;44.63
76759;DHT22;65701;45.588;5.186;2023-08-12T08:56:14;32.57;45.16
76759;DHT22;65701;45.588;5.186;2023-08-12T08:58:39;32.67;44.74
76759;DHT22;65701;45.588;5.186;2023-08-12T09:01:06;32.78;44.64
76759;DHT22;65701;45.588;5.186;2023-08-12T09:03:35;32.84;44.84
76759;DHT22;65701;45.588;5.186;2023-08-12T09:06:02;32.94;44.94
76759;DHT22;65701;45.588;5.186;2023-08-12T09:08:29;33.01;44.87
76759;DHT22;65701;45.588;5.186;2023-08-12T09:10:57;33.22;44.78
76759;DHT22;65701;45.588;5.186;2023-08-12T09:13:23;33.18;44.20
76759;DHT22;65701;45.588;5.186;2023-08-12T09:15:48;32.98;43.93
76759;DHT22;65701;45.588;5.186;2023-08-12T09:18:15;32.77;43.94
76759;DHT22;65701;45.588;5.186;2023-08-12T09:20:41;32.63;44.40
76759;DHT22;65701;45.588;5.186;2023-08-12T09:23:06;32.64;44.61
76759;DHT22;65701;45.588;5.186;2023-08-12T09:25:34;32.56;44.71
76759;DHT22;65701;45.588;5.186;2023-08-12T09:28:00;32.68;45.20
76759;DHT22;65701;45.588;5.186;2023-08-12T09:30:29;32.70;45.29
76759;DHT22;65701;45.588;5.186;2023-08-12T09:33:00;32.77;45.23
76759;DHT22;65701;45.588;5.186;2023-08-12T09:35:39;32.75;45.04
76759;DHT22;65701;45.588;5.186;2023-08-12T09:38:12;32.74;45.01
76759;DHT22;65701;45.588;5.186;2023-08-12T09:40:39;32.79;45.56
76759;DHT22;65701;45.588;5.186;2023-08-12T09:43:05;32.82;45.49
76759;DHT22;65701;45.588;5.186;2023-08-12T09:45:32;32.89;45.49
76759;DHT22;65701;45.588;5.186;2023-08-12T09:47:58;32.92;45.35
76759;DHT22;65701;45.588;5.186;2023-08-12T09:50:25;32.91;45.27
76759;DHT22;65701;45.588;5.186;2023-08-12T09:52:52;32.81;45.20
76759;DHT22;65701;45.588;5.186;2023-08-12T09:55:19;32.75;45.51
76759;DHT22;65701;45.588;5.186;2023-08-12T09:57:48;32.75;45.58
76759;DHT22;65701;45.588;5.186;2023-08-12T10:00:16;32.70;45.72
76759;DHT22;65701;45.588;5.186;2023-08-12T10:02:45;32.64;45.23
76759;DHT22;65701;45.588;5.186;2023-08-12T10:05:31;32.60;45.22
76759;DHT22;65701;45.588;5.186;2023-08-12T10:07:57;32.57;45.70
76759;DHT22;65701;45.588;5.186;2023-08-12T10:10:24;32.61;46.07
76759;DHT22;65701;45.588;5.186;2023-08-12T10:12:50;32.79;46.19
76759;DHT22;65701;45.588;5.186;2023-08-12T10:15:16;32.94;46.20
76759;DHT22;65701;45.588;5.186;2023-08-12T10:17:42;33.09;45.91
76759;DHT22;65701;45.588;5.186;2023-08-12T10:20:12;33.16;45.56
76759;DHT22;65701;45.588;5.186;2023-08-12T10:22:39;33.15;45.22
76759;DHT22;65701;45.588;5.186;2023-08-12T10:25:07;33.08;44.92
76759;DHT22;65701;45.588;5.186;2023-08-12T10:27:36;33.09;44.96
76759;DHT22;65701;45.588;5.186;2023-08-12T10:30:03;33.16;45.39
76759;DHT22;65701;45.588;5.186;2023-08-12T10:32:30;33.30;45.12
76759;DHT22;65701;45.588;5.186;2023-08-12T10:34:57;33.45;45.23
76759;DHT22;65701;45.588;5.186;2023-08-12T10:37:24;33.54;45.65
76759;DHT22;65701;45.588;5.186;2023-08-12T10:39:51;33.50;45.39
76759;DHT22;65701;45.588;5.186;2023-08-12T10:42:45;33.50;45.21
76759;DHT22;65701;45.588;5.186;2023-08-12T10:45:13;33.50;45.53
76759;DHT22;65701;45.588;5.186;2023-08-12T10:48:09;33.50;44.85
76759;DHT22;65701;45.588;5.186;2023-08-12T10:50:34;33.46;44.77
76759;DHT22;65701;45.588;5.186;2023-08-12T10:53:23;33.50;45.01
76759;DHT22;65701;45.588;5.186;2023-08-12T10:55:58;33.49;45.25
76759;DHT22;65701;45.588;5.186;2023-08-12T11:01:00;33.54;45.14
76759;DHT22;65701;45.588;5.186;2023-08-12T11:03:26;33.59;45.18
76759;DHT22;65701;45.588;5.186;2023-08-12T11:05:53;33.64;45.41
76759;DHT22;65701;45.588;5.186;2023-08-12T11:08:24;33.73;45.53
76759;DHT22;65701;45.588;5.186;2023-08-12T11:10:52;33.77;45.26
76759;DHT22;65701;45.588;5.186;2023-08-12T11:13:19;33.78;45.12
76759;DHT22;65701;45.588;5.186;2023-08-12T11:15:45;33.77;45.03
76759;DHT22;65701;45.588;5.186;2023-08-12T11:18:18;33.82;45.31
76759;DHT22;65701;45.588;5.186;2023-08-12T11:20:45;33.84;45.07
76759;DHT22;65701;45.588;5.186;2023-08-12T11:23:11;33.85;45.01
76759;DHT22;65701;45.588;5.186;2023-08-12T11:25:40;33.84;45.17
76759;DHT22;65701;45.588;5.186;2023-08-12T11:28:07;33.88;44.72
76759;DHT22;65701;45.588;5.186;2023-08-12T11:30:33;33.88;45.02
76759;DHT22;65701;45.588;5.186;2023-08-12T11:33:00;33.84;44.94
76759;DHT22;65701;45.588;5.186;2023-08-12T11:35:26;33.82;44.46
76759;DHT22;65701;45.588;5.186;2023-08-12T11:37:54;33.85;44.22
76759;DHT22;65701;45.588;5.186;2023-08-12T11:40:21;33.82;43.93
76759;DHT22;65701;45.588;5.186;2023-08-12T11:42:48;33.81;43.84
76759;DHT22;65701;45.588;5.186;2023-08-12T11:45:21;33.78;43.85
76759;DHT22;65701;45.588;5.186;2023-08-12T11:47:47;33.81;43.81
76759;DHT22;65701;45.588;5.186;2023-08-12T11:50:22;33.87;43.80
76759;DHT22;65701;45.588;5.186;2023-08-12T11:52:48;33.88;43.97
76759;DHT22;65701;45.588;5.186;2023-08-12T11:55:14;33.84;43.91
76759;DHT22;65701;45.588;5.186;2023-08-12T11:57:40;33.78;43.61
76759;DHT22;65701;45.588;5.186;2023-08-12T12:00:09;33.70;43.44
76759;DHT22;65701;45.588;5.186;2023-08-12T12:02:52;33.64;44.14
76759;DHT22;65701;45.588;5.186;2023-08-12T12:05:21;33.57;43.89
76759;DHT22;65701;45.588;5.186;2023-08-12T12:07:48;33.53;44.43
76759;DHT22;65701;45.588;5.186;2023-08-12T12:10:18;33.43;44.80
76759;DHT22;65701;45.588;5.186;2023-08-12T12:12:44;33.33;44.78
76759;DHT22;65701;45.588;5.186;2023-08-12T12:15:13;33.29;44.52
76759;DHT22;65701;45.588;5.186;2023-08-12T12:17:40;33.26;44.63
76759;DHT22;65701;45.588;5.186;2023-08-12T12:20:07;33.27;44.98
76759;DHT22;65701;45.588;5.186;2023-08-12T12:22:36;33.29;44.79
76759;DHT22;65701;45.588;5.186;2023-08-12T12:25:07;33.32;44.62
76759;DHT22;65701;45.588;5.186;2023-08-12T12:27:33;33.30;44.54
76759;DHT22;65701;45.588;5.186;2023-08-12T12:29:59;33.23;44.50
76759;DHT22;65701;45.588;5.186;2023-08-12T12:32:25;33.23;44.56
76759;DHT22;65701;45.588;5.186;2023-08-12T12:34:51;33.21;44.49
76759;DHT22;65701;45.588;5.186;2023-08-12T12:37:18;33.15;44.61
76759;DHT22;65701;45.588;5.186;2023-08-12T12:39:43;33.08;44.78
76759;DHT22;65701;45.588;5.186;2023-08-12T12:42:10;32.99;45.00
76759;DHT22;65701;45.588;5.186;2023-08-12T12:44:35;32.94;45.45
76759;DHT22;65701;45.588;5.186;2023-08-12T12:47:02;32.89;45.64
76759;DHT22;65701;45.588;5.186;2023-08-12T12:49:27;32.81;45.63
76759;DHT22;65701;45.588;5.186;2023-08-12T12:51:53;32.77;45.67
76759;DHT22;65701;45.588;5.186;2023-08-12T12:54:19;32.72;45.49
76759;DHT22;65701;45.588;5.186;2023-08-12T12:56:45;32.75;45.25
76759;DHT22;65701;45.588;5.186;2023-08-12T12:59:10;32.74;45.60
76759;DHT22;65701;45.588;5.186;2023-08-12T13:01:36;32.75;45.26
76759;DHT22;65701;45.588;5.186;2023-08-12T13:04:02;32.79;45.91
76759;DHT22;65701;45.588;5.186;2023-08-12T13:06:27;32.79;46.35
76759;DHT22;65701;45.588;5.186;2023-08-12T13:08:53;32.79;46.19
76759;DHT22;65701;45.588;5.186;2023-08-12T13:11:18;32.82;46.89
76759;DHT22;65701;45.588;5.186;2023-08-12T13:13:44;32.79;46.47
76759;DHT22;65701;45.588;5.186;2023-08-12T13:16:09;32.74;45.98
76759;DHT22;65701;45.588;5.186;2023-08-12T13:18:35;32.68;45.97
76759;DHT22;65701;45.588;5.186;2023-08-12T13:21:00;32.63;45.82
76759;DHT22;65701;45.588;5.186;2023-08-12T13:23:26;32.59;45.31
76759;DHT22;65701;45.588;5.186;2023-08-12T13:25:52;32.56;45.39
76759;DHT22;65701;45.588;5.186;2023-08-12T13:28:17;32.49;45.10
76759;DHT22;65701;45.588;5.186;2023-08-12T13:30:44;32.49;45.38
76759;DHT22;65701;45.588;5.186;2023-08-12T13:33:10;32.47;45.61
76759;DHT22;65701;45.588;5.186;2023-08-12T13:35:36;32.50;45.76
76759;DHT22;65701;45.588;5.186;2023-08-12T13:38:02;32.49;45.83
76759;DHT22;65701;45.588;5.186;2023-08-12T13:40:27;32.45;45.86
76759;DHT22;65701;45.588;5.186;2023-08-12T13:42:53;32.49;45.81
76759;DHT22;65701;45.588;5.186;2023-08-12T13:45:18;32.44;45.64
76759;DHT22;65701;45.588;5.186;2023-08-12T13:47:44;32.49;45.65
76759;DHT22;65701;45.588;5.186;2023-08-12T13:50:10;32.49;45.72
76759;DHT22;65701;45.588;5.186;2023-08-12T13:52:36;32.51;45.72
76759;DHT22;65701;45.588;5.186;2023-08-12T13:55:03;32.49;45.47
76759;DHT22;65701;45.588;5.186;2023-08-12T13:57:29;32.49;45.50
76759;DHT22;65701;45.588;5.186;2023-08-12T13:59:55;32.47;45.64
76759;DHT22;65701;45.588;5.186;2023-08-12T14:02:20;32.50;46.07
76759;DHT22;65701;45.588;5.186;2023-08-12T14:04:45;32.53;46.14
76759;DHT22;65701;45.588;5.186;2023-08-12T14:07:11;32.63;46.43
76759;DHT22;65701;45.588;5.186;2023-08-12T14:09:36;32.74;46.00
76759;DHT22;65701;45.588;5.186;2023-08-12T14:12:02;32.92;45.95
76759;DHT22;65701;45.588;5.186;2023-08-12T14:14:29;33.01;45.56
76759;DHT22;65701;45.588;5.186;2023-08-12T14:16:55;33.06;45.56
76759;DHT22;65701;45.588;5.186;2023-08-12T14:19:20;33.12;45.58
76759;DHT22;65701;45.588;5.186;2023-08-12T14:21:46;33.18;45.47
76759;DHT22;65701;45.588;5.186;2023-08-12T14:24:12;33.19;45.16
76759;DHT22;65701;45.588;5.186;2023-08-12T14:26:39;33.19;44.80
76759;DHT22;65701;45.588;5.186;2023-08-12T14:29:04;33.19;44.47
76759;DHT22;65701;45.588;5.186;2023-08-12T14:31:30;33.18;43.81
76759;DHT22;65701;45.588;5.186;2023-08-12T14:33:55;33.25;43.91
76759;DHT22;65701;45.588;5.186;2023-08-12T14:36:21;33.23;43.31
76759;DHT22;65701;45.588;5.186;2023-08-12T14:38:46;33.29;43.99
76759;DHT22;65701;45.588;5.186;2023-08-12T14:41:12;33.33;44.23
76759;DHT22;65701;45.588;5.186;2023-08-12T14:43:37;33.42;44.14
76759;DHT22;65701;45.588;5.186;2023-08-12T14:46:03;33.47;44.33
76759;DHT22;65701;45.588;5.186;2023-08-12T14:48:30;33.49;44.40
76759;DHT22;65701;45.588;5.186;2023-08-12T14:50:56;33.51;44.55
76759;DHT22;65701;45.588;5.186;2023-08-12T14:53:21;33.50;44.72
76759;DHT22;65701;45.588;5.186;2023-08-12T14:55:47;33.53;44.74
76759;DHT22;65701;45.588;5.186;2023-08-12T14:58:12;33.54;44.18
76759;DHT22;65701;45.588;5.186;2023-08-12T15:00:38;33.59;44.17
76759;DHT22;65701;45.588;5.186;2023-08-12T15:03:03;33.59;43.92
76759;DHT22;65701;45.588;5.186;2023-08-12T15:05:29;33.57;43.42
76759;DHT22;65701;45.588;5.186;2023-08-12T15:07:55;33.57;43.44
76759;DHT22;65701;45.588;5.186;2023-08-12T15:10:20;33.51;43.46
76759;DHT22;65701;45.588;5.186;2023-08-12T15:12:46;33.50;43.60
76759;DHT22;65701;45.588;5.186;2023-08-12T15:15:11;33.47;43.54
76759;DHT22;65701;45.588;5.186;2023-08-12T15:17:37;33.49;43.26
76759;DHT22;65701;45.588;5.186;2023-08-12T15:20:02;33.43;42.92
76759;DHT22;65701;45.588;5.186;2023-08-12T15:22:31;33.40;42.61
76759;DHT22;65701;45.588;5.186;2023-08-12T15:24:56;33.43;42.90
76759;DHT22;65701;45.588;5.186;2023-08-12T15:27:22;33.40;42.88
76759;DHT22;65701;45.588;5.186;2023-08-12T15:29:47;33.42;42.78